TimeCDT,TemperatureF,Dew PointF,Humidity,Sea Level PressureIn,VisibilityMPH,Wind Direction,Wind SpeedMPH,Gust SpeedMPH,PrecipitationIn,Events,Conditions,WindDirDegrees,DateUTC
12:15 AM,32.0,26.6,80,29.93,10.0,West,6.9,-,N/A,,Overcast,270,2013-03-15 05:15:00
12:35 AM,32.0,26.6,80,29.93,10.0,West,5.8,-,N/A,,Overcast,280,2013-03-15 05:35:00
12:55 AM,32.0,26.6,80,29.91,10.0,West,6.9,-,N/A,,Overcast,280,2013-03-15 05:55:00
1:15 AM,32.0,26.6,80,29.91,10.0,WNW,4.6,-,N/A,,Overcast,300,2013-03-15 06:15:00
1:35 AM,32.0,26.6,80,29.91,10.0,Calm,Calm,-,N/A,,Overcast,0,2013-03-15 06:35:00
2:15 AM,32.0,26.6,80,29.90,7.0,WNW,3.5,-,N/A,,Overcast,300,2013-03-15 07:15:00
2:35 AM,32.0,28.4,87,29.89,7.0,West,5.8,-,N/A,,Overcast,270,2013-03-15 07:35:00
2:55 AM,32.0,28.4,87,29.89,7.0,WNW,4.6,-,N/A,,Overcast,290,2013-03-15 07:55:00
3:15 AM,32.0,28.4,87,29.88,7.0,WNW,4.6,-,N/A,,Overcast,290,2013-03-15 08:15:00
3:35 AM,32.0,28.4,87,29.88,7.0,NW,4.6,-,N/A,,Overcast,310,2013-03-15 08:35:00
3:55 AM,32.0,28.4,87,29.87,7.0,NW,3.5,-,N/A,,Overcast,320,2013-03-15 08:55:00
4:15 AM,32.0,28.4,87,29.86,7.0,NW,4.6,-,N/A,,Overcast,310,2013-03-15 09:15:00
4:35 AM,32.0,28.4,87,29.86,7.0,NW,3.5,-,N/A,,Overcast,310,2013-03-15 09:35:00
4:55 AM,32.0,28.4,87,29.86,7.0,NW,4.6,-,N/A,,Overcast,320,2013-03-15 09:55:00
5:15 AM,32.0,28.4,87,29.86,7.0,NNW,6.9,-,N/A,,Overcast,330,2013-03-15 10:15:00
5:35 AM,32.0,28.4,87,29.87,7.0,NNW,6.9,-,N/A,,Overcast,340,2013-03-15 10:35:00
5:55 AM,32.0,28.4,87,29.87,7.0,NNW,6.9,-,N/A,,Overcast,340,2013-03-15 10:55:00
6:15 AM,32.0,28.4,87,29.87,7.0,North,8.1,-,N/A,,Overcast,360,2013-03-15 11:15:00
6:35 AM,32.0,28.4,87,29.89,10.0,North,9.2,-,N/A,,Overcast,10,2013-03-15 11:35:00
6:55 AM,30.2,26.6,86,29.90,10.0,North,9.2,-,N/A,,Overcast,10,2013-03-15 11:55:00
7:15 AM,30.2,26.6,86,29.91,10.0,North,11.5,-,N/A,,Overcast,360,2013-03-15 12:15:00
7:35 AM,28.4,26.6,93,29.91,10.0,North,12.7,-,N/A,,Overcast,360,2013-03-15 12:35:00
7:55 AM,28.4,23.0,80,29.92,10.0,North,12.7,-,N/A,,Overcast,10,2013-03-15 12:55:00
8:15 AM,28.4,21.2,74,29.92,10.0,NNE,9.2,-,N/A,,Overcast,20,2013-03-15 13:15:00
8:35 AM,28.4,21.2,74,29.92,10.0,NE,10.4,17.3,N/A,,Overcast,40,2013-03-15 13:35:00
8:55 AM,28.4,21.2,74,29.92,10.0,NNE,9.2,17.3,N/A,,Overcast,30,2013-03-15 13:55:00
9:15 AM,28.4,21.2,74,29.92,10.0,NNE,6.9,-,N/A,,Overcast,30,2013-03-15 14:15:00
9:35 AM,26.6,19.4,74,29.92,10.0,NNE,9.2,-,N/A,,Overcast,20,2013-03-15 14:35:00
10:55 AM,26.6,19.4,74,29.93,10.0,North,9.2,17.3,N/A,,Overcast,360,2013-03-15 15:55:00
11:15 AM,28.4,19.4,69,29.92,10.0,NNE,6.9,17.3,N/A,,Overcast,30,2013-03-15 16:15:00
11:35 AM,28.4,19.4,69,29.92,10.0,North,10.4,-,N/A,,Overcast,360,2013-03-15 16:35:00
11:55 AM,28.4,17.6,64,29.92,10.0,North,10.4,-,N/A,,Overcast,360,2013-03-15 16:55:00
12:15 PM,28.4,17.6,64,29.92,10.0,North,8.1,-,N/A,,Overcast,10,2013-03-15 17:15:00
12:35 PM,28.4,17.6,64,29.91,10.0,North,9.2,-,N/A,,Mostly Cloudy,10,2013-03-15 17:35:00
12:55 PM,28.4,17.6,64,29.91,10.0,North,9.2,-,N/A,,Scattered Clouds,360,2013-03-15 17:55:00
1:15 PM,30.2,17.6,60,29.92,10.0,North,4.6,17.3,N/A,,Mostly Cloudy,10,2013-03-15 18:15:00
1:35 PM,28.4,17.6,64,29.91,10.0,North,9.2,-,N/A,,Mostly Cloudy,350,2013-03-15 18:35:00
1:55 PM,30.2,17.6,60,29.91,10.0,North,8.1,-,N/A,,Mostly Cloudy,350,2013-03-15 18:55:00
2:15 PM,30.2,15.8,55,29.90,10.0,North,5.8,17.3,N/A,,Mostly Cloudy,360,2013-03-15 19:15:00
2:35 PM,30.2,14.0,51,29.89,10.0,ENE,8.1,-,N/A,,Scattered Clouds,60,2013-03-15 19:35:00
2:55 PM,30.2,14.0,51,29.88,10.0,ENE,4.6,-,N/A,,Mostly Cloudy,60,2013-03-15 19:55:00
3:15 PM,30.2,14.0,51,29.88,10.0,NE,6.9,-,N/A,,Mostly Cloudy,40,2013-03-15 20:15:00
3:35 PM,30.2,14.0,51,29.88,10.0,Calm,Calm,-,N/A,,Mostly Cloudy,0,2013-03-15 20:35:00
3:55 PM,30.2,14.0,51,29.88,10.0,NE,5.8,-,N/A,,Overcast,50,2013-03-15 20:55:00
4:15 PM,30.2,14.0,51,29.87,10.0,ENE,5.8,-,N/A,,Overcast,70,2013-03-15 21:15:00
4:35 PM,30.2,15.8,55,29.86,10.0,NNE,4.6,-,N/A,,Overcast,20,2013-03-15 21:35:00
4:55 PM,30.2,14.0,51,29.87,10.0,NNE,6.9,-,N/A,,Overcast,30,2013-03-15 21:55:00
5:15 PM,30.2,14.0,51,29.87,10.0,NE,5.8,-,N/A,,Overcast,40,2013-03-15 22:15:00
5:35 PM,30.2,14.0,51,29.86,10.0,NE,4.6,-,N/A,,Overcast,40,2013-03-15 22:35:00
5:55 PM,30.2,14.0,51,29.87,10.0,NNE,4.6,-,N/A,,Overcast,20,2013-03-15 22:55:00
6:15 PM,28.4,15.8,59,29.87,5.0,North,9.2,-,N/A,Snow,Light Snow,360,2013-03-15 23:15:00
6:35 PM,28.4,15.8,59,29.87,10.0,NNE,9.2,-,N/A,,Overcast,20,2013-03-15 23:35:00
6:55 PM,26.6,15.8,64,29.87,10.0,NE,6.9,-,N/A,,Overcast,40,2013-03-15 23:55:00
7:15 PM,26.6,15.8,64,29.86,7.0,NE,5.8,9.2,N/A,,Overcast,50,2013-03-16 00:15:00
7:35 PM,24.8,15.8,69,29.87,7.0,NNE,5.8,-,N/A,Snow,Light Snow,30,2013-03-16 00:35:00
7:55 PM,23.0,14.0,68,29.87,5.0,NNE,9.2,-,N/A,Snow,Light Snow,30,2013-03-16 00:55:00
8:15 PM,23.0,14.0,68,29.88,3.0,NE,6.9,-,N/A,Snow,Light Snow,40,2013-03-16 01:15:00
8:35 PM,23.0,17.6,80,29.88,2.0,NNE,8.1,-,N/A,Snow,Light Snow,20,2013-03-16 01:35:00
8:55 PM,21.2,17.6,86,29.88,1.8,NE,4.6,-,N/A,Snow,Light Snow,40,2013-03-16 01:55:00
9:15 PM,19.4,15.8,86,29.88,1.8,NE,4.6,-,N/A,Snow,Light Snow,40,2013-03-16 02:15:00
9:35 PM,19.4,15.8,86,29.88,2.0,NE,11.5,17.3,N/A,Snow,Light Snow,40,2013-03-16 02:35:00
9:55 PM,19.4,15.8,86,29.89,1.8,NE,8.1,-,0.01,Snow,Light Snow,40,2013-03-16 02:55:00
10:15 PM,19.4,14.0,80,29.90,1.5,NNE,5.8,-,N/A,Snow,Light Snow,30,2013-03-16 03:15:00
10:35 PM,17.6,14.0,86,29.90,1.5,NE,4.6,-,N/A,Snow,Light Snow,40,2013-03-16 03:35:00
10:55 PM,17.6,14.0,86,29.89,1.8,ENE,6.9,-,0.01,Snow,Light Snow,70,2013-03-16 03:55:00
11:15 PM,17.6,12.2,79,29.90,3.0,ENE,5.8,-,N/A,Snow,Light Snow,60,2013-03-16 04:15:00
11:35 PM,17.6,12.2,79,29.89,4.0,ENE,5.8,-,N/A,Snow,Light Snow,60,2013-03-16 04:35:00
11:55 PM,17.6,12.2,79,29.90,4.0,ENE,5.8,-,N/A,Snow,Light Snow,70,2013-03-16 04:55:00